Terminal Aerodrome Forecast
Issued by NWS Huntsville, AL

Current Version | Previous Version | Text Only | Print | Product List | Glossary On
Versions: 1 2 3 4 5 6 7 8 9 10 11 12 13 14 15 16 17 18 19 20 21 22 23 24
000
FTUS44 KHUN 081720
TAFHSV
TAF
KHSV 081720Z 0818/0918 29015G23KT P6SM BKN050 OVC080
     FM082200 30014G21KT P6SM -RASN BKN040 OVC080
     FM090200 30009KT P6SM OVC040
     FM090900 30009KT P6SM -SHSN OVC030=

USA.gov is the U.S. government's official web portal to all federal, state and local government web resources and services.